createdAt,value
2022-10-29T00:00:42.539Z,3.63
2022-10-29T00:05:45.521Z,3.92
2022-10-29T00:10:49.877Z,3.33
2022-10-29T00:15:52.696Z,3.65
2022-10-29T00:21:01.940Z,3.75
2022-10-29T00:26:07.923Z,3.60
2022-10-29T00:31:16.442Z,3.50
2022-10-29T00:36:22.111Z,3.20
2022-10-29T00:41:30.376Z,3.83
2022-10-29T00:51:46.567Z,4.15
2022-10-29T00:56:53.816Z,3.78
2022-10-29T01:01:57.070Z,3.13
2022-10-29T01:07:00.251Z,3.40
2022-10-29T01:12:20.102Z,3.80
2022-10-29T01:17:31.654Z,3.70
2022-10-29T01:22:41.058Z,3.53
2022-10-29T01:28:04.057Z,3.92
2022-10-29T01:33:18.901Z,4.38
2022-10-29T01:38:33.440Z,3.35
2022-10-29T01:48:46.549Z,4.10
2022-10-29T01:53:50.687Z,3.58
2022-10-29T01:58:59.495Z,3.45
2022-10-29T02:04:23.239Z,4.00
2022-10-29T02:09:34.118Z,3.30
2022-10-29T02:14:42.558Z,3.35
2022-10-29T02:19:47.087Z,3.78
2022-10-29T02:24:50.496Z,3.28
2022-10-29T02:29:53.648Z,3.17
2022-10-29T02:34:58.417Z,3.72
2022-10-29T02:40:04.892Z,3.95
2022-10-29T02:45:08.606Z,3.70
2022-10-29T02:50:12.887Z,3.70
2022-10-29T03:00:19.484Z,3.90
2022-10-29T03:05:26.251Z,3.33
2022-10-29T03:10:29.332Z,3.90
2022-10-29T03:15:34.918Z,3.33
2022-10-29T03:20:41.316Z,3.95
2022-10-29T03:25:44.277Z,3.88
2022-10-29T03:30:47.404Z,3.17
2022-10-29T03:35:51.884Z,3.65
2022-10-29T03:40:57.415Z,4.25
2022-10-29T03:46:01.895Z,3.65
2022-10-29T03:51:08.921Z,3.55
2022-10-29T03:56:12.349Z,3.88
2022-10-29T04:01:15.163Z,3.65
2022-10-29T04:06:19.590Z,4.40
2022-10-29T04:16:28.030Z,3.55
2022-10-29T04:32:21.063Z,3.70
2022-10-29T04:37:25.435Z,4.43
2022-10-29T04:47:32.689Z,3.88
2022-10-29T04:52:36.783Z,4.28
2022-10-29T04:57:39.803Z,3.67
2022-10-29T05:02:44.823Z,3.90
2022-10-29T05:08:06.020Z,4.07
2022-10-29T05:13:12.131Z,3.97
2022-10-29T05:18:17.425Z,4.30
2022-10-29T05:23:22.065Z,4.57
2022-10-29T05:28:25.884Z,4.20
2022-10-29T05:33:28.644Z,4.43
2022-10-29T05:38:34.213Z,3.85
2022-10-29T05:43:37.420Z,4.68
2022-10-29T05:48:40.162Z,4.18
2022-10-29T05:53:44.372Z,4.45
2022-10-29T05:58:50.175Z,4.40
2022-10-29T06:08:57.272Z,5.72
2022-10-29T06:14:00.179Z,4.05
2022-10-29T06:19:03.259Z,4.63
2022-10-29T06:24:08.712Z,4.65
2022-10-29T06:29:11.490Z,4.28
2022-10-29T06:34:14.952Z,4.78
2022-10-29T06:39:19.404Z,5.47
2022-10-29T06:49:42.627Z,4.60
2022-10-29T06:54:47.148Z,4.50
2022-10-29T06:59:51.502Z,4.82
2022-10-29T07:09:59.352Z,4.88
2022-10-29T07:15:08.284Z,4.78
2022-10-29T07:20:19.191Z,5.18
2022-10-29T07:25:23.459Z,5.00
2022-10-29T07:30:26.313Z,4.80
2022-10-29T07:35:32.132Z,5.07
2022-10-29T07:40:56.742Z,5.50
2022-10-29T07:51:04.953Z,6.53
2022-10-29T07:56:12.968Z,5.40
2022-10-29T08:01:42.040Z,5.88
2022-10-29T08:06:57.155Z,5.63
2022-10-29T08:12:48.644Z,13.25
2022-10-29T08:17:56.156Z,5.72
2022-10-29T08:23:03.860Z,5.80
2022-10-29T08:28:07.902Z,5.47
2022-10-29T08:33:16.068Z,5.18
2022-10-29T08:38:18.885Z,4.70
2022-10-29T08:43:34.531Z,4.85
2022-10-29T08:48:46.662Z,5.15
2022-10-29T08:54:25.107Z,5.70
2022-10-29T08:59:27.507Z,6.25
2022-10-29T09:04:38.447Z,4.75
2022-10-29T09:09:48.698Z,4.75
2022-10-29T09:15:10.651Z,5.97
2022-10-29T09:20:31.930Z,5.40
2022-10-29T09:25:40.252Z,5.65
2022-10-29T09:30:51.133Z,7.13
2022-10-29T09:35:57.405Z,5.30
2022-10-29T09:41:04.603Z,4.78
2022-10-29T09:46:13.362Z,5.30
2022-10-29T09:51:29.932Z,4.70
2022-10-29T09:56:33.054Z,4.35
2022-10-29T10:01:36.203Z,5.03
2022-10-29T10:07:08.804Z,6.10
2022-10-29T10:12:31.118Z,4.72
2022-10-29T10:18:01.897Z,4.68
2022-10-29T10:23:49.421Z,5.15
2022-10-29T10:29:05.465Z,4.18
2022-10-29T10:34:18.473Z,4.43
2022-10-29T10:39:38.873Z,4.37
2022-10-29T10:44:57.214Z,5.28
2022-10-29T10:50:15.951Z,4.45
2022-10-29T10:55:28.942Z,4.47
2022-10-29T11:07:01.691Z,4.53
2022-10-29T11:12:18.863Z,4.05
2022-10-29T11:17:33.518Z,3.55
2022-10-29T11:23:08.250Z,4.47
2022-10-29T11:28:24.890Z,4.15
2022-10-29T11:33:47.556Z,4.53
2022-10-29T11:38:55.429Z,4.85
2022-10-29T11:43:59.641Z,4.28
2022-10-29T11:49:21.554Z,4.88
2022-10-29T11:54:38.793Z,4.93
2022-10-29T12:00:00.970Z,4.40
2022-10-29T12:05:14.366Z,3.72
2022-10-29T12:10:38.732Z,4.40
2022-10-29T12:15:56.624Z,3.90
2022-10-29T12:21:07.782Z,4.05
2022-10-29T12:26:16.543Z,3.58
2022-10-29T12:31:27.763Z,4.57
2022-10-29T12:36:37.974Z,4.75
2022-10-29T12:42:23.279Z,3.97
2022-10-29T12:47:46.736Z,3.90
2022-10-29T12:57:57.718Z,3.90
2022-10-29T13:08:35.465Z,3.90
2022-10-29T13:13:48.593Z,3.70
2022-10-29T13:19:18.332Z,4.53
2022-10-29T13:24:22.101Z,4.78
2022-10-29T13:29:47.238Z,4.43
2022-10-29T13:34:57.228Z,4.40
2022-10-29T13:40:40.194Z,4.20
2022-10-29T13:45:51.726Z,5.20
2022-10-29T13:51:03.969Z,4.18
2022-10-29T13:56:10.824Z,4.82
2022-10-29T14:01:27.867Z,4.72
2022-10-29T14:06:37.616Z,4.93
2022-10-29T14:11:43.777Z,5.30
2022-10-29T14:16:46.761Z,4.57
2022-10-29T14:21:52.132Z,4.60
2022-10-29T14:27:10.407Z,4.85
2022-10-29T14:32:15.654Z,4.35
2022-10-29T14:37:29.721Z,5.10
2022-10-29T14:42:35.430Z,4.50
2022-10-29T14:47:40.602Z,6.00
2022-10-29T14:52:52.573Z,4.82
2022-10-29T14:58:04.421Z,4.83
2022-10-29T15:03:08.531Z,5.18
2022-10-29T15:08:19.166Z,4.47
2022-10-29T15:13:27.692Z,5.10
2022-10-29T15:18:45.184Z,5.63
2022-10-29T15:30:31.329Z,5.70
2022-10-29T15:35:41.241Z,5.57
2022-10-29T15:41:08.214Z,6.03
2022-10-29T15:46:16.159Z,6.68
2022-10-29T15:51:29.118Z,6.30
2022-10-29T15:56:53.432Z,7.43
2022-10-29T16:06:58.831Z,6.47
2022-10-29T16:12:02.955Z,9.10
2022-10-29T16:22:17.910Z,9.75
2022-10-29T16:27:29.736Z,13.90
2022-10-29T16:32:34.923Z,13.45
2022-10-29T16:37:37.630Z,15.45
2022-10-29T16:42:42.543Z,16.38
2022-10-29T16:47:45.441Z,15.52
2022-10-29T16:52:48.404Z,16.08
2022-10-29T16:57:55.460Z,22.70
2022-10-29T17:03:03.373Z,20.55
2022-10-29T17:08:11.208Z,18.17
2022-10-29T17:13:15.370Z,18.95
2022-10-29T17:23:20.585Z,17.10
2022-10-29T17:28:29.148Z,15.75
2022-10-29T17:33:31.832Z,16.55
2022-10-29T17:38:34.864Z,15.82
2022-10-29T17:43:39.037Z,15.40
2022-10-29T17:48:42.196Z,16.33
2022-10-29T17:53:44.969Z,14.73
2022-10-29T17:58:49.226Z,15.93
2022-10-29T18:03:52.372Z,14.48
2022-10-29T18:08:55.153Z,14.05
2022-10-29T18:13:59.669Z,14.00
2022-10-29T18:19:03.773Z,13.60
2022-10-29T18:29:12.830Z,12.73
2022-10-29T18:34:19.996Z,11.73
2022-10-29T18:39:22.799Z,12.55
2022-10-29T18:44:27.076Z,12.20
2022-10-29T18:54:32.485Z,12.23
2022-10-29T18:59:36.773Z,12.90
2022-10-29T19:09:42.314Z,11.48
2022-10-29T19:14:46.679Z,11.05
2022-10-29T19:19:49.532Z,12.95
2022-10-29T19:24:57.553Z,12.50
2022-10-29T19:30:02.372Z,12.45
2022-10-29T19:35:05.587Z,13.25
2022-10-29T19:40:11.659Z,11.38
2022-10-29T19:45:16.103Z,11.05
2022-10-29T19:50:18.984Z,11.48
2022-10-29T19:55:21.933Z,11.63
2022-10-29T20:00:26.314Z,12.18
2022-10-29T20:05:29.154Z,11.00
2022-10-29T20:10:35.316Z,12.27
2022-10-29T20:15:41.727Z,12.50
2022-10-29T20:20:44.683Z,11.95
2022-10-29T20:25:47.449Z,12.15
2022-10-29T20:30:51.555Z,12.90
2022-10-29T20:35:54.432Z,11.98
2022-10-29T20:40:57.341Z,10.88
2022-10-29T20:46:02.229Z,11.10
2022-10-29T20:51:05.378Z,10.85
2022-10-29T20:56:11.568Z,10.95
2022-10-29T21:01:20.701Z,11.38
2022-10-29T21:06:23.587Z,11.00
2022-10-29T21:11:26.448Z,10.95
2022-10-29T21:16:34.575Z,10.27
2022-10-29T21:21:38.118Z,10.90
2022-10-29T21:26:41.036Z,10.70
2022-10-29T21:31:47.950Z,10.55
2022-10-29T21:36:50.983Z,11.02
2022-10-29T21:42:00.891Z,10.13
2022-10-29T21:47:05.465Z,10.90
2022-10-29T21:52:08.206Z,11.45
2022-10-29T21:57:11.212Z,10.75
2022-10-29T22:02:15.580Z,11.45
2022-10-29T22:12:20.959Z,10.77
2022-10-29T22:17:28.314Z,10.35
2022-10-29T22:22:31.185Z,11.05
2022-10-29T22:27:34.015Z,10.13
2022-10-29T22:32:38.433Z,10.00
2022-10-29T22:42:44.431Z,10.48
2022-10-29T22:47:48.522Z,9.73
2022-10-29T22:52:51.241Z,9.57
2022-10-29T22:57:54.088Z,8.98
2022-10-29T23:02:59.971Z,9.70
2022-10-29T23:08:03.029Z,9.55
2022-10-29T23:13:05.831Z,9.15
2022-10-29T23:18:10.564Z,9.30
2022-10-29T23:23:14.520Z,8.82
2022-10-29T23:28:17.373Z,9.75
2022-10-29T23:33:21.849Z,8.43
2022-10-29T23:38:24.705Z,8.48
2022-10-29T23:43:27.673Z,9.85
2022-10-29T23:48:31.853Z,8.80
2022-10-29T23:53:34.522Z,6.22
2022-10-29T23:58:37.145Z,8.55
